Time;durP1;ratioP1;P1;durP2;ratioP2;P2;SDS_P1;SDS_P2;PMS_P1;PMS_P2;Temp;Humidity;BMP_temperature;BMP_pressure;BME280_temperature;BME280_humidity;BME280_pressure;Samples;Min_cycle;Max_cycle;Signal;HPM_P1;HPM_P2
2020/12/29 00:00:28;;;;;;;39.20;25.65;;;3.60;85.90;;;;;;5034764;28;20464;-60
2020/12/29 00:02:54;;;;;;;34.15;23.85;;;3.60;85.60;;;;;;5033612;28;20082;-56
2020/12/29 00:05:19;;;;;;;32.13;21.83;;;3.70;85.10;;;;;;5035893;28;20455;-57
2020/12/29 00:07:53;;;;;;;33.95;21.75;;;3.70;84.90;;;;;;5040987;28;20500;-60
2020/12/29 00:10:25;;;;;;;29.92;19.83;;;3.70;85.10;;;;;;5013660;28;20091;-55
2020/12/29 00:12:51;;;;;;;29.98;22.17;;;3.70;85.20;;;;;;5032015;28;20481;-58
2020/12/29 00:15:17;;;;;;;29.38;21.63;;;3.70;85.00;;;;;;5040098;28;20116;-59
2020/12/29 00:17:43;;;;;;;31.17;21.80;;;3.60;85.20;;;;;;5041021;28;20366;-62
2020/12/29 00:20:10;;;;;;;29.95;21.23;;;3.60;85.40;;;;;;5042309;28;20032;-59
2020/12/29 00:22:36;;;;;;;30.58;21.20;;;3.60;85.30;;;;;;5034458;28;20424;-57
2020/12/29 00:25:02;;;;;;;27.85;20.73;;;3.60;85.00;;;;;;5030127;28;20025;-61
2020/12/29 00:27:27;;;;;;;29.13;21.13;;;3.50;85.50;;;;;;5043423;28;20098;-56
2020/12/29 00:29:53;;;;;;;30.25;21.80;;;3.60;85.30;;;;;;5040658;28;20037;-61
2020/12/29 00:32:21;;;;;;;30.15;21.65;;;3.60;85.10;;;;;;5032106;28;20134;-57
2020/12/29 00:34:48;;;;;;;27.83;20.88;;;3.60;85.10;;;;;;5047431;28;20056;-61
2020/12/29 00:37:14;;;;;;;31.25;22.25;;;3.60;85.20;;;;;;5040964;28;20060;-62
2020/12/29 00:39:43;;;;;;;28.63;21.50;;;3.60;85.00;;;;;;5045920;28;20053;-61
2020/12/29 00:42:09;;;;;;;30.88;22.13;;;3.60;84.80;;;;;;5036958;28;20480;-61
2020/12/29 00:44:35;;;;;;;29.52;22.33;;;3.60;84.40;;;;;;5039329;28;20040;-62
2020/12/29 00:47:00;;;;;;;32.45;21.95;;;3.50;85.10;;;;;;5050381;28;20487;-56
2020/12/29 00:49:26;;;;;;;30.60;21.48;;;3.50;85.20;;;;;;5039515;28;20083;-58
2020/12/29 00:51:55;;;;;;;30.80;22.02;;;3.50;85.10;;;;;;5038732;28;20037;-61
2020/12/29 00:54:21;;;;;;;31.50;21.20;;;3.60;84.90;;;;;;5047161;28;20384;-63
2020/12/29 00:56:47;;;;;;;26.15;20.45;;;3.50;84.80;;;;;;5036998;28;20039;-62
2020/12/29 00:59:13;;;;;;;31.48;21.70;;;3.50;85.20;;;;;;5050465;28;20091;-62
2020/12/29 01:01:40;;;;;;;31.77;22.00;;;3.40;85.20;;;;;;5045410;28;20037;-61
2020/12/29 01:04:05;;;;;;;37.05;25.08;;;3.50;84.90;;;;;;5033121;28;20049;-60
2020/12/29 01:06:31;;;;;;;40.60;26.45;;;3.50;85.10;;;;;;5047006;28;20465;-62
2020/12/29 01:08:57;;;;;;;38.20;24.88;;;3.50;85.70;;;;;;5036068;28;20053;-62
2020/12/29 01:11:23;;;;;;;68.85;38.42;;;3.50;85.80;;;;;;5041508;28;20170;-60
2020/12/29 01:13:49;;;;;;;32.83;23.83;;;3.40;85.60;;;;;;5041681;28;20080;-57
2020/12/29 01:16:14;;;;;;;31.20;21.30;;;3.50;85.30;;;;;;5038138;28;20033;-60
2020/12/29 01:18:40;;;;;;;30.67;21.88;;;3.40;84.90;;;;;;5021185;28;20392;-60
2020/12/29 01:21:10;;;;;;;29.48;21.42;;;3.40;85.20;;;;;;5019066;28;20044;-61
2020/12/29 01:23:36;;;;;;;26.60;19.48;;;3.40;85.30;;;;;;5029711;28;20041;-61
2020/12/29 01:26:03;;;;;;;28.45;20.98;;;3.50;85.10;;;;;;5032356;28;20048;-60
2020/12/29 01:28:28;;;;;;;32.42;20.42;;;3.60;84.70;;;;;;5032568;28;20025;-57
2020/12/29 01:30:54;;;;;;;28.10;21.17;;;3.60;84.40;;;;;;5031993;28;20083;-57
2020/12/29 01:33:19;;;;;;;31.02;21.10;;;3.70;84.20;;;;;;5032710;28;20042;-57
2020/12/29 01:35:45;;;;;;;30.15;21.30;;;3.60;84.00;;;;;;5032914;28;20030;-60
2020/12/29 01:38:10;;;;;;;32.67;21.60;;;3.60;84.10;;;;;;5015404;28;20053;-57
2020/12/29 01:40:36;;;;;;;29.85;21.88;;;3.50;84.20;;;;;;5033222;28;20053;-59
2020/12/29 01:43:03;;;;;;;28.33;19.85;;;3.40;84.70;;;;;;5033011;28;20416;-60
2020/12/29 01:45:28;;;;;;;30.27;20.98;;;3.50;84.80;;;;;;5032875;28;20390;-58
2020/12/29 01:47:54;;;;;;;28.48;21.48;;;3.50;84.60;;;;;;5033095;28;20503;-61
2020/12/29 01:50:22;;;;;;;29.77;20.80;;;3.60;84.50;;;;;;5033468;28;20033;-62
2020/12/29 01:53:03;;;;;;;31.13;21.60;;;3.50;84.30;;;;;;5032824;28;20497;-60
2020/12/29 01:55:30;;;;;;;28.65;21.00;;;3.60;84.10;;;;;;5027113;28;20025;-61
2020/12/29 01:57:59;;;;;;;29.20;20.48;;;3.60;84.00;;;;;;5033020;28;20041;-55
2020/12/29 02:00:25;;;;;;;29.20;20.65;;;3.60;84.00;;;;;;5030785;28;20092;-61
2020/12/29 02:02:51;;;;;;;27.60;20.02;;;3.60;83.60;;;;;;5032830;28;20076;-60
2020/12/29 02:05:17;;;;;;;29.88;20.88;;;3.70;83.60;;;;;;5033049;28;20049;-63
2020/12/29 02:07:46;;;;;;;31.42;21.42;;;3.60;83.20;;;;;;5070739;22;20524;-60
2020/12/29 02:10:12;;;;;;;56.95;34.45;;;3.60;83.90;;;;;;5072863;28;20033;-61
2020/12/29 02:12:37;;;;;;;89.95;47.75;;;3.60;84.70;;;;;;5072725;28;20039;-60
2020/12/29 02:15:06;;;;;;;58.25;33.90;;;3.60;85.80;;;;;;5060309;28;20510;-60
2020/12/29 02:17:31;;;;;;;110.95;54.60;;;3.50;85.10;;;;;;5041656;28;20064;-61
2020/12/29 02:19:57;;;;;;;117.32;59.92;;;3.50;84.70;;;;;;5045495;28;20463;-61
2020/12/29 02:22:24;;;;;;;104.68;54.47;;;3.50;84.50;;;;;;5052918;28;20040;-61
2020/12/29 02:24:55;;;;;;;54.03;31.35;;;3.60;84.50;;;;;;5051732;28;20040;-62
2020/12/29 02:27:22;;;;;;;29.45;20.65;;;3.50;84.70;;;;;;5034370;28;20040;-62
2020/12/29 02:29:48;;;;;;;27.73;19.92;;;3.50;83.90;;;;;;5052053;28;20024;-62
2020/12/29 02:32:15;;;;;;;26.80;19.15;;;3.40;84.10;;;;;;5034228;28;20033;-61
2020/12/29 02:34:41;;;;;;;27.40;20.05;;;3.30;84.20;;;;;;5051700;28;20082;-61
2020/12/29 02:37:09;;;;;;;25.60;18.77;;;3.30;84.00;;;;;;5052741;28;20025;-62
2020/12/29 02:39:36;;;;;;;27.23;19.90;;;3.20;85.00;;;;;;5052223;28;20023;-61
2020/12/29 02:42:02;;;;;;;28.33;19.80;;;3.20;84.90;;;;;;5051786;28;20087;-62
2020/12/29 02:44:28;;;;;;;25.98;18.08;;;3.20;85.00;;;;;;5051677;28;20090;-62
2020/12/29 02:46:54;;;;;;;24.25;18.77;;;3.20;84.90;;;;;;5051530;28;20045;-61
2020/12/29 02:49:19;;;;;;;26.20;18.38;;;3.30;84.70;;;;;;5051237;28;20037;-61
2020/12/29 02:51:45;;;;;;;28.42;19.83;;;3.20;84.90;;;;;;5051702;28;20037;-61
2020/12/29 02:54:14;;;;;;;25.77;18.38;;;3.20;84.80;;;;;;5033194;28;20033;-60
2020/12/29 02:56:44;;;;;;;24.88;18.77;;;3.20;85.00;;;;;;5051035;28;20033;-61
2020/12/29 02:59:11;;;;;;;25.27;18.25;;;3.20;84.60;;;;;;5033574;28;20055;-61
2020/12/29 03:01:36;;;;;;;26.38;18.73;;;3.20;84.70;;;;;;5051537;28;20070;-61
2020/12/29 03:04:02;;;;;;;24.45;17.30;;;3.20;84.50;;;;;;5051469;28;20033;-63
2020/12/29 03:06:27;;;;;;;24.52;18.15;;;3.20;84.50;;;;;;5051157;28;20040;-62
2020/12/29 03:08:53;;;;;;;23.52;17.50;;;3.20;84.60;;;;;;5050668;28;20441;-62
2020/12/29 03:11:28;;;;;;;25.40;18.35;;;3.20;84.60;;;;;;5049952;28;20095;-62
2020/12/29 03:13:55;;;;;;;24.98;17.92;;;3.20;84.70;;;;;;5050751;28;20040;-62
2020/12/29 03:16:21;;;;;;;24.95;17.10;;;3.20;84.70;;;;;;5051155;28;20387;-62
2020/12/29 03:18:47;;;;;;;24.30;17.77;;;3.20;84.70;;;;;;5051612;28;20044;-61
2020/12/29 03:21:12;;;;;;;22.85;16.90;;;3.20;84.50;;;;;;5051362;28;20033;-62
2020/12/29 03:23:38;;;;;;;24.65;17.98;;;3.20;84.50;;;;;;5033744;28;20064;-62
2020/12/29 03:26:04;;;;;;;23.40;16.63;;;3.20;84.30;;;;;;5051546;28;20123;-62
2020/12/29 03:28:29;;;;;;;23.67;16.80;;;3.30;84.20;;;;;;5051918;28;20052;-62
2020/12/29 03:30:55;;;;;;;22.35;17.58;;;3.20;84.00;;;;;;5033724;28;20031;-62
2020/12/29 03:33:20;;;;;;;23.08;16.45;;;3.20;84.20;;;;;;5033633;28;20037;-62
2020/12/29 03:35:46;;;;;;;25.98;17.90;;;3.20;84.30;;;;;;5050797;28;20025;-62
2020/12/29 03:38:12;;;;;;;24.52;16.70;;;3.10;84.50;;;;;;5051291;28;20322;-62
2020/12/29 03:40:37;;;;;;;25.60;17.77;;;3.00;84.70;;;;;;5050746;28;20056;-61
2020/12/29 03:43:03;;;;;;;23.65;17.88;;;3.00;85.60;;;;;;5049768;28;20087;-62
2020/12/29 03:45:28;;;;;;;24.75;18.42;;;3.00;84.90;;;;;;5048714;28;20391;-61
2020/12/29 03:47:54;;;;;;;23.13;17.38;;;2.90;85.20;;;;;;5045883;28;20079;-62
2020/12/29 03:50:19;;;;;;;25.23;18.50;;;2.90;85.10;;;;;;5038097;28;20055;-62
2020/12/29 03:52:46;;;;;;;24.52;17.40;;;2.80;85.60;;;;;;5032225;28;20045;-62
2020/12/29 03:55:12;;;;;;;29.40;20.50;;;2.80;85.70;;;;;;5050415;28;20032;-61
2020/12/29 03:57:38;;;;;;;24.95;18.52;;;2.80;85.70;;;;;;5032712;28;20071;-62
2020/12/29 04:00:06;;;;;;;24.60;17.73;;;2.80;85.30;;;;;;5034166;28;20045;-62
2020/12/29 04:02:32;;;;;;;26.42;17.42;;;2.80;85.60;;;;;;5050723;28;20033;-62
2020/12/29 04:04:57;;;;;;;24.67;17.65;;;2.90;85.40;;;;;;5033308;28;20036;-63
2020/12/29 04:07:23;;;;;;;22.50;16.60;;;2.90;85.20;;;;;;5051575;28;20045;-62
2020/12/29 04:09:48;;;;;;;25.35;18.50;;;3.00;84.90;;;;;;5055556;28;20052;-63
2020/12/29 04:12:14;;;;;;;25.55;18.77;;;3.00;84.60;;;;;;5054686;28;20063;-60
2020/12/29 04:14:40;;;;;;;27.75;19.58;;;3.00;84.50;;;;;;5037353;28;20115;-64
2020/12/29 04:17:05;;;;;;;24.73;17.67;;;2.90;84.70;;;;;;5054943;28;20250;-61
2020/12/29 04:19:31;;;;;;;25.20;18.35;;;2.80;84.70;;;;;;5055017;28;20041;-62
2020/12/29 04:21:56;;;;;;;22.15;16.40;;;2.80;84.90;;;;;;5037379;28;20503;-62
2020/12/29 04:24:22;;;;;;;23.52;16.88;;;2.80;84.70;;;;;;5037195;28;20475;-62
2020/12/29 04:26:48;;;;;;;23.27;15.70;;;2.70;85.10;;;;;;5055057;28;20041;-61
2020/12/29 04:29:13;;;;;;;20.52;15.60;;;2.60;85.30;;;;;;5055475;28;20032;-61
2020/12/29 04:31:39;;;;;;;21.55;15.52;;;2.60;85.60;;;;;;5003856;28;20043;-62
2020/12/29 04:34:04;;;;;;;22.92;15.80;;;2.60;85.50;;;;;;5055840;28;20509;-61
2020/12/29 04:36:30;;;;;;;19.25;14.82;;;2.70;85.30;;;;;;5055838;28;20108;-62
2020/12/29 04:38:55;;;;;;;21.15;15.05;;;2.60;85.50;;;;;;5056926;28;20037;-62
2020/12/29 04:41:21;;;;;;;21.23;15.07;;;2.70;85.30;;;;;;5056502;28;20025;-62
2020/12/29 04:43:47;;;;;;;23.52;15.27;;;2.70;85.30;;;;;;5056965;28;20040;-62
2020/12/29 04:46:13;;;;;;;20.27;15.38;;;2.70;85.40;;;;;;5039880;28;20033;-62
2020/12/29 04:48:39;;;;;;;18.98;15.07;;;2.70;85.40;;;;;;5032496;28;20046;-62
2020/12/29 04:51:07;;;;;;;21.02;14.65;;;2.70;85.00;;;;;;5058245;28;20032;-63
2020/12/29 04:53:35;;;;;;;21.33;16.08;;;2.70;85.20;;;;;;5039852;28;20047;-62
2020/12/29 04:56:08;;;;;;;19.95;14.88;;;2.60;85.30;;;;;;5057107;28;20037;-62
2020/12/29 04:58:37;;;;;;;20.40;14.68;;;2.60;85.50;;;;;;5057197;28;20113;-61
2020/12/29 05:01:10;;;;;;;19.25;13.93;;;2.70;85.20;;;;;;5035722;28;20072;-62
2020/12/29 05:03:46;;;;;;;21.05;14.55;;;2.70;85.10;;;;;;5037307;28;20037;-62
2020/12/29 05:06:13;;;;;;;20.17;14.57;;;2.70;84.80;;;;;;5054672;28;20040;-62
2020/12/29 05:08:52;;;;;;;18.33;13.40;;;2.60;84.90;;;;;;5054561;28;20037;-61
2020/12/29 05:11:20;;;;;;;19.38;14.35;;;2.60;84.90;;;;;;5053481;28;20033;-61
2020/12/29 05:13:47;;;;;;;16.65;13.20;;;2.60;85.20;;;;;;5053877;28;20041;-61
2020/12/29 05:16:13;;;;;;;19.80;13.13;;;2.60;85.00;;;;;;5054309;28;20120;-61
2020/12/29 05:18:40;;;;;;;18.52;14.15;;;2.60;85.20;;;;;;5053887;28;20047;-59
2020/12/29 05:21:05;;;;;;;19.52;13.70;;;2.70;85.00;;;;;;5052981;28;20048;-60
2020/12/29 05:23:31;;;;;;;19.48;13.90;;;2.70;84.70;;;;;;5053830;28;20049;-59
2020/12/29 05:25:57;;;;;;;22.58;14.85;;;2.80;84.60;;;;;;5053247;28;20044;-60
2020/12/29 05:28:25;;;;;;;18.63;13.73;;;2.70;84.30;;;;;;5053758;28;20507;-62
2020/12/29 05:30:58;;;;;;;18.38;13.50;;;2.80;84.40;;;;;;5053390;28;20048;-61
2020/12/29 05:33:24;;;;;;;18.05;13.00;;;2.70;84.30;;;;;;5053586;28;20114;-61
2020/12/29 05:35:51;;;;;;;19.13;13.88;;;2.60;84.20;;;;;;5035727;28;20037;-61
2020/12/29 05:38:18;;;;;;;19.98;14.27;;;2.60;84.30;;;;;;5035837;28;20036;-60
2020/12/29 05:40:46;;;;;;;18.27;13.73;;;2.60;84.50;;;;;;5053548;28;20040;-59
2020/12/29 05:43:12;;;;;;;16.40;13.07;;;2.60;84.50;;;;;;5054570;28;20029;-60
2020/12/29 05:45:38;;;;;;;16.88;13.68;;;2.60;84.40;;;;;;5052963;28;20041;-61
2020/12/29 05:48:04;;;;;;;17.27;12.82;;;2.70;84.20;;;;;;5053350;28;20044;-60
2020/12/29 05:50:30;;;;;;;19.40;14.20;;;2.60;84.20;;;;;;5054113;28;20394;-62
2020/12/29 05:53:05;;;;;;;21.05;15.13;;;2.70;84.20;;;;;;5053489;28;20064;-60
2020/12/29 05:55:32;;;;;;;19.20;14.30;;;2.60;84.20;;;;;;5056550;28;20045;-61
2020/12/29 05:58:09;;;;;;;20.58;14.77;;;2.50;84.30;;;;;;5056972;28;20037;-61
2020/12/29 06:00:36;;;;;;;16.20;13.07;;;2.50;84.70;;;;;;5055497;28;20036;-59
2020/12/29 06:03:04;;;;;;;23.25;15.25;;;2.50;85.30;;;;;;5038294;28;20021;-61
2020/12/29 06:05:32;;;;;;;22.45;14.98;;;2.50;84.60;;;;;;5052798;28;20112;-59
2020/12/29 06:08:00;;;;;;;20.27;14.38;;;2.50;84.50;;;;;;5053189;28;20075;-60
2020/12/29 06:10:27;;;;;;;20.13;14.80;;;2.50;84.70;;;;;;5052890;28;20033;-62
2020/12/29 06:12:57;;;;;;;19.75;14.77;;;2.50;84.50;;;;;;5053850;28;20060;-61
2020/12/29 06:15:26;;;;;;;21.77;15.27;;;2.50;84.20;;;;;;5035089;28;20098;-61
2020/12/29 06:17:55;;;;;;;20.33;14.32;;;2.60;84.10;;;;;;5053150;28;20058;-61
2020/12/29 06:20:21;;;;;;;18.25;14.02;;;2.50;83.80;;;;;;5053300;28;20044;-61
2020/12/29 06:22:50;;;;;;;18.38;13.60;;;2.60;83.90;;;;;;5053390;28;20025;-61
2020/12/29 06:25:17;;;;;;;20.38;14.38;;;2.50;83.60;;;;;;5052014;28;20028;-58
2020/12/29 06:27:51;;;;;;;21.67;13.95;;;2.60;83.60;;;;;;5052781;28;20029;-62
2020/12/29 06:30:20;;;;;;;18.95;13.93;;;2.60;83.30;;;;;;5034714;28;20029;-62
2020/12/29 06:32:49;;;;;;;19.83;14.48;;;2.50;83.50;;;;;;5033804;28;20119;-61
2020/12/29 06:35:16;;;;;;;21.88;15.05;;;2.60;83.50;;;;;;5052156;28;20178;-61
2020/12/29 06:37:52;;;;;;;23.52;15.98;;;2.60;83.50;;;;;;5052718;28;20025;-61
2020/12/29 06:40:20;;;;;;;26.08;13.95;;;2.60;83.30;;;;;;5052563;28;20059;-63
2020/12/29 06:42:46;;;;;;;21.35;15.48;;;2.60;83.20;;;;;;5034952;28;20041;-61
2020/12/29 06:45:12;;;;;;;20.20;13.85;;;2.50;83.10;;;;;;5034583;28;20374;-61
2020/12/29 06:47:42;;;;;;;20.17;14.07;;;2.60;83.90;;;;;;5052202;28;20025;-62
2020/12/29 06:50:31;;;;;;;18.35;13.15;;;2.50;83.40;;;;;;5053083;28;20056;-62
2020/12/29 06:53:04;;;;;;;20.73;13.55;;;2.50;83.40;;;;;;5053025;28;20044;-61
2020/12/29 06:55:36;;;;;;;19.83;14.27;;;2.60;83.10;;;;;;5053332;28;20399;-62
2020/12/29 06:58:03;;;;;;;18.95;13.38;;;2.60;83.80;;;;;;5035466;28;20036;-61
2020/12/29 07:00:28;;;;;;;19.75;15.27;;;2.60;83.20;;;;;;5035749;28;20033;-61
2020/12/29 07:02:54;;;;;;;25.65;17.48;;;2.60;83.30;;;;;;5035341;28;20044;-62
2020/12/29 07:05:28;;;;;;;20.10;14.73;;;2.60;83.10;;;;;;5035354;28;20033;-64
2020/12/29 07:07:58;;;;;;;21.17;14.57;;;2.70;82.90;;;;;;5034923;28;20068;-61
2020/12/29 07:10:45;;;;;;;22.85;15.00;;;2.60;83.40;;;;;;5034568;28;20044;-61
2020/12/29 07:13:12;;;;;;;19.00;14.05;;;2.60;83.60;;;;;;5052209;28;20071;-62
2020/12/29 07:15:55;;;;;;;19.83;14.43;;;2.70;83.20;;;;;;5052222;28;20452;-61
2020/12/29 07:18:25;;;;;;;22.20;15.50;;;2.70;82.90;;;;;;5051983;28;20128;-60
2020/12/29 07:20:53;;;;;;;22.67;15.32;;;2.70;83.00;;;;;;5052180;28;20044;-61
2020/12/29 07:23:25;;;;;;;19.58;14.48;;;2.70;82.80;;;;;;5051892;28;20029;-61
2020/12/29 07:25:52;;;;;;;22.20;16.05;;;2.70;83.00;;;;;;5033872;28;20068;-61
2020/12/29 07:28:23;;;;;;;20.92;15.18;;;2.80;82.80;;;;;;5034334;28;20060;-61
2020/12/29 07:30:49;;;;;;;19.45;14.73;;;2.80;82.80;;;;;;5034042;28;20098;-61
2020/12/29 07:33:22;;;;;;;21.95;15.68;;;2.80;82.80;;;;;;5051728;28;20029;-61
2020/12/29 07:35:48;;;;;;;21.70;14.43;;;2.80;82.70;;;;;;5051656;28;20033;-61
2020/12/29 07:38:22;;;;;;;19.35;14.45;;;2.80;82.70;;;;;;5034189;28;20037;-61
2020/12/29 07:40:48;;;;;;;20.10;15.07;;;2.80;82.70;;;;;;5053035;28;20021;-61
2020/12/29 07:43:14;;;;;;;27.08;14.95;;;2.80;82.80;;;;;;5052874;28;20032;-61
2020/12/29 07:45:40;;;;;;;19.23;14.70;;;2.80;82.60;;;;;;5051749;28;20436;-58
2020/12/29 07:48:07;;;;;;;22.58;15.57;;;2.80;82.50;;;;;;5047424;28;20538;-64
2020/12/29 07:50:34;;;;;;;19.80;14.70;;;2.80;82.60;;;;;;5035067;28;20026;-60
2020/12/29 07:53:05;;;;;;;20.42;14.65;;;2.80;82.50;;;;;;5053912;28;20137;-59
2020/12/29 07:55:31;;;;;;;18.58;15.10;;;2.90;82.50;;;;;;5052999;28;20051;-60
2020/12/29 07:58:02;;;;;;;29.13;19.58;;;3.00;82.20;;;;;;5054165;28;20136;-61
2020/12/29 08:00:27;;;;;;;22.60;16.15;;;3.00;82.20;;;;;;5053248;28;20512;-62
2020/12/29 08:02:53;;;;;;;25.40;18.15;;;3.10;81.80;;;;;;5034036;28;20072;-58
2020/12/29 08:05:37;;;;;;;22.20;16.55;;;3.20;81.70;;;;;;5051275;28;20025;-60
2020/12/29 08:08:08;;;;;;;22.25;17.38;;;3.20;81.60;;;;;;5034214;28;20514;-62
2020/12/29 08:10:36;;;;;;;24.70;17.00;;;3.30;81.50;;;;;;5051248;28;20072;-62
2020/12/29 08:13:07;;;;;;;20.95;15.25;;;3.30;81.50;;;;;;5034810;28;20033;-63
2020/12/29 08:15:43;;;;;;;22.83;17.05;;;3.40;81.60;;;;;;5032891;28;20055;-62
2020/12/29 08:18:10;;;;;;;22.77;16.80;;;3.40;81.60;;;;;;5051986;28;20083;-62
2020/12/29 08:20:47;;;;;;;21.38;16.48;;;3.40;81.70;;;;;;5051293;28;20131;-62
2020/12/29 08:23:17;;;;;;;20.52;16.48;;;3.40;81.60;;;;;;5051682;28;20439;-62
2020/12/29 08:26:00;;;;;;;22.58;16.98;;;3.50;81.40;;;;;;5051019;28;20033;-62
2020/12/29 08:28:26;;;;;;;20.55;17.05;;;3.40;81.70;;;;;;5051338;28;20031;-62
2020/12/29 08:30:54;;;;;;;27.55;20.58;;;3.60;81.30;;;;;;5050768;28;20035;-62
2020/12/29 08:33:22;;;;;;;25.75;19.92;;;3.60;81.10;;;;;;5051254;28;20129;-62
2020/12/29 08:35:56;;;;;;;26.02;19.95;;;3.60;81.10;;;;;;5050583;28;20447;-61
2020/12/29 08:38:31;;;;;;;24.50;19.50;;;3.70;80.90;;;;;;5051614;28;20029;-63
2020/12/29 08:41:11;;;;;;;22.60;18.48;;;3.70;81.00;;;;;;5033118;28;20033;-61
2020/12/29 08:43:50;;;;;;;24.35;18.90;;;3.70;81.10;;;;;;5051249;28;20496;-62
2020/12/29 08:46:20;;;;;;;43.63;31.10;;;3.80;80.80;;;;;;5051050;28;20450;-63
2020/12/29 08:48:57;;;;;;;53.42;33.67;;;3.80;81.20;;;;;;5040396;28;20037;-62
2020/12/29 08:51:25;;;;;;;22.85;17.52;;;3.80;81.00;;;;;;5027105;28;20037;-63
2020/12/29 08:53:51;;;;;;;20.30;15.73;;;3.80;80.90;;;;;;5051059;28;20033;-62
2020/12/29 08:56:23;;;;;;;21.70;15.90;;;3.80;81.40;;;;;;5036224;28;20044;-63
2020/12/29 08:58:49;;;;;;;21.73;15.35;;;3.80;81.50;;;;;;5054969;28;20116;-62
2020/12/29 09:01:35;;;;;;;22.42;15.98;;;3.70;81.80;;;;;;5036515;28;20065;-62
2020/12/29 09:04:24;;;;;;;20.17;15.13;;;3.80;81.90;;;;;;5036561;28;20040;-62
2020/12/29 09:07:09;;;;;;;18.15;12.95;;;3.80;82.00;;;;;;5054488;28;20040;-63
2020/12/29 09:09:56;;;;;;;18.90;14.40;;;3.90;81.50;;;;;;5055886;28;20036;-63
2020/12/29 09:12:28;;;;;;;15.55;11.85;;;3.90;81.90;;;;;;5054833;28;20025;-62
2020/12/29 09:15:08;;;;;;;17.15;11.45;;;3.90;82.10;;;;;;5037070;28;20497;-66
2020/12/29 09:17:46;;;;;;;17.33;12.68;;;3.80;82.70;;;;;;5054436;28;20029;-62
2020/12/29 09:20:19;;;;;;;14.50;11.52;;;3.90;82.60;;;;;;5037859;28;20029;-62
2020/12/29 09:23:07;;;;;;;13.90;11.45;;;3.90;82.90;;;;;;5017209;28;20033;-62
2020/12/29 09:25:42;;;;;;;16.00;12.25;;;3.80;83.40;;;;;;5036312;28;20031;-62
2020/12/29 09:28:24;;;;;;;;;;;3.80;83.80;;;;;;5037026;28;20029;-62
2020/12/29 09:30:56;;;;;;;14.43;10.63;;;3.90;83.50;;;;;;5053817;28;19909;-62
2020/12/29 09:33:22;;;;;;;13.15;10.55;;;3.90;83.70;;;;;;5054522;28;20108;-65
2020/12/29 09:35:59;;;;;;;11.98;9.65;;;3.90;84.00;;;;;;5019582;28;20068;-62
2020/12/29 09:38:31;;;;;;;13.35;10.20;;;3.90;84.10;;;;;;5054394;28;20036;-63
2020/12/29 09:40:58;;;;;;;12.43;10.77;;;4.00;83.90;;;;;;5054180;28;20833;-64
2020/12/29 09:43:24;;;;;;;13.27;9.82;;;4.00;83.90;;;;;;5054202;28;20511;-62
2020/12/29 09:45:50;;;;;;;20.42;16.92;;;4.10;83.90;;;;;;5053661;28;20052;-63
2020/12/29 09:48:17;;;;;;;14.00;9.65;;;4.10;84.40;;;;;;5036281;28;20285;-63
2020/12/29 09:50:43;;;;;;;11.45;9.75;;;4.10;84.30;;;;;;5040130;28;20060;-62
2020/12/29 09:53:14;;;;;;;13.63;10.65;;;4.20;84.10;;;;;;5055007;28;20025;-62
2020/12/29 09:55:40;;;;;;;12.00;9.90;;;4.10;84.50;;;;;;5055372;28;20040;-62
2020/12/29 09:58:09;;;;;;;11.40;9.40;;;4.00;84.70;;;;;;5036795;28;20478;-62
2020/12/29 10:00:35;;;;;;;11.40;9.50;;;4.20;84.00;;;;;;5052711;28;20419;-62
2020/12/29 10:03:00;;;;;;;10.73;8.90;;;4.10;84.20;;;;;;5053605;28;20099;-62
2020/12/29 10:05:27;;;;;;;11.20;9.27;;;4.20;84.10;;;;;;5052774;28;20032;-63
2020/12/29 10:07:55;;;;;;;14.07;10.45;;;4.20;83.80;;;;;;5053726;28;20091;-62
2020/12/29 10:10:21;;;;;;;12.77;9.30;;;4.30;83.50;;;;;;5053112;28;20423;-63
2020/12/29 10:12:49;;;;;;;12.30;8.98;;;4.40;83.10;;;;;;5052681;28;20069;-61
2020/12/29 10:15:15;;;;;;;11.90;9.05;;;4.30;83.40;;;;;;5052822;28;20060;-61
2020/12/29 10:17:40;;;;;;;13.68;10.60;;;4.40;83.60;;;;;;5053118;28;20499;-61
2020/12/29 10:20:07;;;;;;;13.10;10.52;;;4.40;83.70;;;;;;5048541;28;20033;-60
2020/12/29 10:22:36;;;;;;;13.27;11.20;;;4.50;83.90;;;;;;5033461;28;20504;-62
2020/12/29 10:25:05;;;;;;;12.82;10.73;;;4.60;83.70;;;;;;5040719;28;20053;-63
2020/12/29 10:27:31;;;;;;;11.38;9.20;;;4.60;83.20;;;;;;5038283;28;20040;-62
2020/12/29 10:30:00;;;;;;;12.65;10.80;;;4.70;83.40;;;;;;5045630;28;20059;-62
2020/12/29 10:32:25;;;;;;;13.50;11.05;;;4.60;83.00;;;;;;5052560;28;20029;-62
2020/12/29 10:34:51;;;;;;;11.05;9.35;;;4.70;83.10;;;;;;5035051;28;20037;-60
2020/12/29 10:37:17;;;;;;;10.35;9.20;;;4.70;83.30;;;;;;5035333;28;20037;-60
2020/12/29 10:39:43;;;;;;;10.30;8.93;;;4.60;83.30;;;;;;5035878;28;20498;-62
2020/12/29 10:42:08;;;;;;;10.43;8.82;;;4.70;83.00;;;;;;5053954;28;20438;-59
2020/12/29 10:44:34;;;;;;;12.10;8.90;;;4.80;82.90;;;;;;5052976;28;20037;-58
2020/12/29 10:46:59;;;;;;;13.02;8.77;;;4.80;82.90;;;;;;5053470;28;20059;-59
2020/12/29 10:49:25;;;;;;;9.60;8.23;;;4.90;82.50;;;;;;5035374;28;20029;-57
2020/12/29 10:51:51;;;;;;;10.00;8.27;;;4.90;82.60;;;;;;5054525;28;20067;-61
2020/12/29 10:54:16;;;;;;;8.60;7.43;;;4.80;82.80;;;;;;5035207;28;20029;-62
2020/12/29 10:56:42;;;;;;;7.82;6.65;;;4.80;82.60;;;;;;5052669;28;20432;-59
2020/12/29 10:59:08;;;;;;;8.13;7.05;;;4.90;82.40;;;;;;5053295;28;20029;-59
2020/12/29 11:01:33;;;;;;;8.02;6.63;;;4.90;82.40;;;;;;5052257;28;20503;-59
2020/12/29 11:03:59;;;;;;;8.18;6.45;;;5.00;82.20;;;;;;5018363;28;20646;-61
2020/12/29 11:06:25;;;;;;;9.20;7.65;;;5.00;82.10;;;;;;5051877;28;20041;-60
2020/12/29 11:08:51;;;;;;;7.90;6.53;;;5.00;82.10;;;;;;5052463;28;20455;-59
2020/12/29 11:11:18;;;;;;;9.40;8.20;;;5.00;82.10;;;;;;5053525;28;20078;-60
2020/12/29 11:13:44;;;;;;;7.88;6.60;;;4.90;82.30;;;;;;5052052;28;20024;-60
2020/12/29 11:16:18;;;;;;;8.50;7.18;;;4.90;82.40;;;;;;5052094;28;20033;-60
2020/12/29 11:18:44;;;;;;;8.68;6.68;;;4.90;82.40;;;;;;5034665;28;20048;-56
2020/12/29 11:21:10;;;;;;;7.32;6.38;;;4.90;82.70;;;;;;5052160;28;20040;-57
2020/12/29 11:23:36;;;;;;;7.05;6.32;;;4.90;82.80;;;;;;5052403;28;20048;-60
2020/12/29 11:26:02;;;;;;;8.02;6.25;;;4.90;82.70;;;;;;5051828;28;20102;-58
2020/12/29 11:28:27;;;;;;;9.15;7.25;;;4.90;82.90;;;;;;5052117;28;20467;-58
2020/12/29 11:30:53;;;;;;;8.05;7.22;;;4.90;83.00;;;;;;5033994;28;20041;-62
2020/12/29 11:33:19;;;;;;;8.50;7.07;;;4.90;83.30;;;;;;5051908;28;20131;-59
2020/12/29 11:35:53;;;;;;;9.07;7.20;;;4.80;83.50;;;;;;5051861;28;20044;-57
2020/12/29 11:38:25;;;;;;;8.27;6.55;;;4.90;83.40;;;;;;5052776;28;20031;-61
2020/12/29 11:40:52;;;;;;;7.85;6.90;;;4.90;83.50;;;;;;5051967;28;20033;-60
2020/12/29 11:43:19;;;;;;;8.80;7.00;;;4.80;83.80;;;;;;5034803;28;20412;-58
2020/12/29 11:45:44;;;;;;;6.93;6.15;;;4.80;83.90;;;;;;5034419;28;20091;-60
2020/12/29 11:48:10;;;;;;;8.30;6.00;;;4.80;83.70;;;;;;5046270;28;20487;-58
2020/12/29 11:50:36;;;;;;;7.35;6.53;;;4.80;84.10;;;;;;5035663;28;20093;-61
2020/12/29 11:53:02;;;;;;;7.15;6.03;;;4.80;84.30;;;;;;5034224;28;20475;-61
2020/12/29 11:55:27;;;;;;;6.35;5.55;;;4.80;84.10;;;;;;5051927;28;20029;-61
2020/12/29 11:57:53;;;;;;;7.13;5.10;;;4.90;83.60;;;;;;5050347;28;20112;-59
2020/12/29 12:00:18;;;;;;;7.82;5.72;;;5.00;83.50;;;;;;5050600;28;20107;-59
2020/12/29 12:02:44;;;;;;;5.97;5.38;;;5.00;83.60;;;;;;5050535;28;20403;-60
2020/12/29 12:05:11;;;;;;;5.85;5.25;;;4.90;83.70;;;;;;5050455;28;20059;-61
2020/12/29 12:07:40;;;;;;;6.72;5.03;;;4.90;83.60;;;;;;5064569;28;20053;-61
2020/12/29 12:10:08;;;;;;;5.30;4.50;;;4.90;83.60;;;;;;5050937;28;20120;-62
2020/12/29 12:12:34;;;;;;;5.25;4.68;;;5.00;83.30;;;;;;5051409;28;20104;-61
2020/12/29 12:15:00;;;;;;;7.25;5.07;;;4.90;83.70;;;;;;5050826;28;20095;-62
2020/12/29 12:17:25;;;;;;;8.65;5.00;;;4.90;83.60;;;;;;5052030;28;20033;-60
2020/12/29 12:19:51;;;;;;;6.07;5.43;;;4.90;83.70;;;;;;5051984;28;20056;-61
2020/12/29 12:22:16;;;;;;;5.82;4.18;;;4.90;83.40;;;;;;5052229;28;20029;-60
2020/12/29 12:24:42;;;;;;;5.53;4.07;;;4.90;83.00;;;;;;5035144;28;20446;-61
2020/12/29 12:27:07;;;;;;;5.70;4.88;;;4.90;83.60;;;;;;5034970;28;20033;-60
2020/12/29 12:29:36;;;;;;;5.63;4.43;;;4.90;83.50;;;;;;5052985;28;20102;-58
2020/12/29 12:32:05;;;;;;;5.50;4.32;;;4.80;83.90;;;;;;5046208;28;20064;-59
2020/12/29 12:34:30;;;;;;;5.40;3.90;;;4.80;84.40;;;;;;5058001;28;20029;-60
2020/12/29 12:36:56;;;;;;;5.80;4.90;;;4.90;83.90;;;;;;5057262;28;20037;-58
2020/12/29 12:39:22;;;;;;;5.38;4.40;;;4.80;84.50;;;;;;5058072;28;20041;-60
2020/12/29 12:41:47;;;;;;;5.32;4.32;;;4.80;84.40;;;;;;5056652;28;20373;-58
2020/12/29 12:44:16;;;;;;;5.50;3.67;;;4.70;84.90;;;;;;5057349;28;20041;-59